VRMM/MLE METAR and TAF weather

Enter ICAO airport designator
Station Type Date Time Source
VRMM METAR 2020/09/18 16:00 UTC NOAA

VRMM 181600Z 30013KT 9999 -SHRA SCT017 FEW018CB OVC100 27/25 Q1011 CB W TEMPO 6000 -TSRA


Station Type Date Time Source
VRMM Decoded METAR 2020/09/18 16:00 UTC NOAA

Male, Maldives (VRMM) 04-12N 073-32E 2M
Sep 18, 2020 - 12:00 PM EDT / 2020.09.18 1600 UTC
Wind: from the WNW (300 degrees) at 15 MPH (13 KT):0
Visibility: greater than 7 mile(s):0
Sky conditions: overcast
Weather: light rain showers; Cumulonimbus clouds observed
Temperature: 80 F (27 C)
Dew Point: 77 F (25 C)
Relative Humidity: 88%
Pressure (altimeter): 29.85 in. Hg (1011 hPa)
ob: VRMM 181600Z 30013KT 9999 -SHRA SCT017 FEW018CB OVC100 27/25 Q1011 CB W TEMPO 6000 -TSRA
cycle: 16

Station Type Date Time Source
VRMM TAF 2020/09/18 12:12 UTC NOAA

TAF VRMM 181100Z 1812/1918 27012KT 9999 FEW017TCU BKN100
TEMPO 1812/1818 4000 TSRA SCT017CB

Example: see airport list